Ralph E Plagge — WDB8741 — position and weather

sailwx.info

Track history (hours):
 
Tides and Currents Weather Stations Pressure Air Temp Water Temp Dewpoint Dewpoint Depression Visibility Wind Speed Wind Dir Waves Ship Positions

Ralph E Plagge

Owner: Ingram Barge Company LLC, Nashville, TN. More information available from US FCC via Universal Licensing System and Coast Guard Vessel Documentation Center.

Last reported at 2018-May-13 15:39 UTC. Time now 2018-Jun-25 19:49 UTC.
Position N 39°09' W 090°37'.
Warning: this ship's position is 43 days out of date.

Length 46 m; draft 3 m.

Type: Ship (hazmat cat B). MMSI: 366963470.

Date/timePositionNaut miles runAvg speedWind from/ knotsBaromVisibWave heightAir tempDewpointWater temp
2018-May-13 15:39N 39°09' W 090°37'0 1.9
2018-May-13 15:30N 39°08' W 090°37'3 5.9
2018-May-13 15:00N 39°05' W 090°36'3 5.4
2018-May-13 14:29N 39°03' W 090°35'3 5.9
2018-May-13 14:00N 38°60' W 090°34'3 6.2
2018-May-13 13:30N 38°57' W 090°32'3 5.9
2018-May-13 13:00N 38°58' W 090°28'3 5.2
2018-May-13 12:30N 38°58' W 090°25'2 4.6
2018-May-13 12:00N 38°57' W 090°22'2 4.7
2018-May-13 11:31N 38°56' W 090°20'2 4.5
2018-May-13 11:00N 38°55' W 090°17'2 3.8
2018-May-13 10:30N 38°55' W 090°15'0 0.2
2018-May-13 10:01N 38°55' W 090°14'0 0.0
2018-May-13 09:31N 38°55' W 090°14'0 0.3
2018-May-13 09:00N 38°55' W 090°15'0 0.0
2018-May-13 08:31N 38°55' W 090°15'2 4.1
2018-May-13 08:00N 38°55' W 090°17'4 7.6
2018-May-13 07:30N 38°57' W 090°22'4 7.9
2018-May-13 07:00N 38°58' W 090°27'3 5.4
2018-May-13 06:30N 38°58' W 090°30'2 4.2
2018-May-13 06:00N 38°58' W 090°33'3 5.3
2018-May-13 05:30N 39°00' W 090°35'2 4.7
2018-May-13 04:59N 39°03' W 090°35'2 3.5
2018-May-13 04:29N 39°04' W 090°35'2 4.0
2018-May-13 03:59N 39°06' W 090°36'2 3.7
2018-May-13 03:24N 39°08' W 090°37'2 4.0
2018-May-13 03:00N 39°10' W 090°37'  
2018-May-06 13:41N 39°16' W 090°37'4 4.0
2018-May-06 12:41N 39°12' W 090°35'1 3.9
2018-May-06 12:30N 39°11' W 090°36'2 4.1
2018-May-06 12:00N 39°10' W 090°37'0 1.0
2018-May-06 11:30N 39°09' W 090°37'2 3.7
2018-May-06 11:00N 39°07' W 090°36'2 4.1
2018-May-06 10:30N 39°05' W 090°36'2 3.6
2018-May-06 10:00N 39°04' W 090°35'2 3.1
2018-May-06 09:30N 39°02' W 090°35'2 4.0
2018-May-06 09:00N 39°00' W 090°34'2 4.2
2018-May-06 08:30N 38°58' W 090°33'2 3.9
2018-May-06 08:00N 38°57' W 090°31'2 4.8
2018-May-06 07:30N 38°58' W 090°28'2 4.3
2018-May-06 07:00N 38°58' W 090°25'1 1.4
2018-May-06 06:28N 38°58' W 090°24'0 0.5
2018-May-06 06:00N 38°58' W 090°24'2 3.8
2018-May-06 05:30N 38°57' W 090°22'2 4.2
2018-May-06 05:00N 38°56' W 090°19'2 4.0
2018-May-06 04:30N 38°55' W 090°17'2 4.0
2018-May-06 04:00N 38°55' W 090°14'2 3.9
2018-May-06 03:30N 38°54' W 090°12'2 3.9
2018-May-06 03:00N 38°53' W 090°10'1 2.6
2018-May-06 02:30N 38°52' W 090°09'1 1.1
2018-May-06 02:00N 38°52' W 090°08'2 4.2
2018-May-06 01:30N 38°50' W 090°06'2 4.5
2018-May-06 01:00N 38°48' W 090°07'2 3.4
2018-May-06 00:29N 38°46' W 090°08'0 0.1
2018-May-05 23:53N 38°46' W 090°08'2 4.1
2018-May-05 23:30N 38°45' W 090°09'3 4.0
2018-May-05 22:47N 38°42' W 090°11'0 1.7
2018-May-05 22:30N 38°42' W 090°11'0 0.4
2018-May-05 21:58N 38°42' W 090°11'1 2.1
2018-May-05 21:30N 38°41' W 090°11'2 4.1
2018-May-05 21:00N 38°39' W 090°11'2 4.8
2018-May-05 20:30N 38°37' W 090°11'5 4.4
2018-May-05 19:27N 38°33' W 090°15'0 0.5
2018-May-05 19:00N 38°33' W 090°15'0 0.0
2018-May-05 18:30N 38°33' W 090°15'0 0.7
2018-May-05 17:58N 38°32' W 090°15'0 0.1
2018-May-05 14:02N 38°32' W 090°15'0 4.5
2018-May-05 13:59N 38°32' W 090°15'1 0.0
2018-May-04 12:15N 38°31' W 090°16'0 0.9
2018-May-04 12:00N 38°31' W 090°16'0 0.0
2018-May-04 11:06N 38°31' W 090°16'0 0.3
2018-May-04 11:00N 38°31' W 090°16'1 2.3
2018-May-04 10:26N 38°32' W 090°15'0 0.1
2018-May-04 10:00N 38°32' W 090°15'1 1.8
2018-May-04 09:30N 38°32' W 090°16'5 2.9
2018-May-04 07:39N 38°36' W 090°12'110.0
2018-May-04 07:30N 38°37' W 090°11'4 7.9
2018-May-04 07:00N 38°41' W 090°11'1 2.0
2018-May-04 06:26N 38°42' W 090°11'1 2.4
2018-May-04 05:53N 38°43' W 090°10'1 1.5
2018-May-04 05:30N 38°44' W 090°10'0 0.1
2018-May-04 05:00N 38°44' W 090°10'1 2.8
2018-May-04 04:30N 38°45' W 090°09'2 4.3
2018-May-04 04:00N 38°47' W 090°08'3 6.2
2018-May-04 03:30N 38°50' W 090°06'3 5.1
2018-May-04 03:00N 38°52' W 090°09'0 0.8
2018-May-04 02:30N 38°52' W 090°09'0 0.4
2018-May-04 02:00N 38°52' W 090°09'2 4.4
2018-May-04 01:30N 38°53' W 090°12'2 3.7
2018-May-04 01:00N 38°55' W 090°13'0 0.0
2018-May-04 00:30N 38°55' W 090°13'0 0.0
2018-May-04 00:00N 38°55' W 090°13'2 3.3
2018-May-03 23:30N 38°55' W 090°15'3 6.4
2018-May-03 23:00N 38°56' W 090°19'3 6.6
2018-May-03 22:30N 38°57' W 090°23'3 6.7
2018-May-03 22:00N 38°58' W 090°27'2 5.0
2018-May-03 21:30N 38°58' W 090°30'2 4.1
2018-May-03 21:00N 38°58' W 090°33'2 4.9
2018-May-03 20:30N 39°00' W 090°35'2 4.6
2018-May-03 20:00N 39°03' W 090°35'2 3.8
2018-May-03 19:30N 39°04' W 090°35'2 5.0
2018-May-03 19:00N 39°07' W 090°36'2 4.7
2018-May-03 18:30N 39°09' W 090°37'2 4.6
2018-May-03 17:59N 39°11' W 090°36'  
Track history (hours):
 
Tides and Currents Weather Stations Pressure Air Temp Water Temp Dewpoint Dewpoint Depression Visibility Wind Speed Wind Dir Waves Ship Positions

Ralph E Plagge

Owner: Ingram Barge Company LLC, Nashville, TN. More information available from US FCC via Universal Licensing System and Coast Guard Vessel Documentation Center.

Last reported at 2018-May-13 15:39 UTC. Time now 2018-Jun-25 19:49 UTC.
Position N 39°09' W 090°37'.
Warning: this ship's position is 43 days out of date.

Length 46 m; draft 3 m.

Type: Ship (hazmat cat B). MMSI: 366963470.

Date/timePositionNaut miles runAvg speedWind from/ knotsBaromVisibWave heightAir tempDewpointWater temp
2018-May-13 15:39N 39°09' W 090°37'0 1.9
2018-May-13 15:30N 39°08' W 090°37'3 5.9
2018-May-13 15:00N 39°05' W 090°36'3 5.4
2018-May-13 14:29N 39°03' W 090°35'3 5.9
2018-May-13 14:00N 38°60' W 090°34'3 6.2
2018-May-13 13:30N 38°57' W 090°32'3 5.9
2018-May-13 13:00N 38°58' W 090°28'3 5.2
2018-May-13 12:30N 38°58' W 090°25'2 4.6
2018-May-13 12:00N 38°57' W 090°22'2 4.7
2018-May-13 11:31N 38°56' W 090°20'2 4.5
2018-May-13 11:00N 38°55' W 090°17'2 3.8
2018-May-13 10:30N 38°55' W 090°15'0 0.2
2018-May-13 10:01N 38°55' W 090°14'0 0.0
2018-May-13 09:31N 38°55' W 090°14'0 0.3
2018-May-13 09:00N 38°55' W 090°15'0 0.0
2018-May-13 08:31N 38°55' W 090°15'2 4.1
2018-May-13 08:00N 38°55' W 090°17'4 7.6
2018-May-13 07:30N 38°57' W 090°22'4 7.9
2018-May-13 07:00N 38°58' W 090°27'3 5.4
2018-May-13 06:30N 38°58' W 090°30'2 4.2
2018-May-13 06:00N 38°58' W 090°33'3 5.3
2018-May-13 05:30N 39°00' W 090°35'2 4.7
2018-May-13 04:59N 39°03' W 090°35'2 3.5
2018-May-13 04:29N 39°04' W 090°35'2 4.0
2018-May-13 03:59N 39°06' W 090°36'2 3.7
2018-May-13 03:24N 39°08' W 090°37'2 4.0
2018-May-13 03:00N 39°10' W 090°37'  
2018-May-06 13:41N 39°16' W 090°37'4 4.0
2018-May-06 12:41N 39°12' W 090°35'1 3.9
2018-May-06 12:30N 39°11' W 090°36'2 4.1
2018-May-06 12:00N 39°10' W 090°37'0 1.0
2018-May-06 11:30N 39°09' W 090°37'2 3.7
2018-May-06 11:00N 39°07' W 090°36'2 4.1
2018-May-06 10:30N 39°05' W 090°36'2 3.6
2018-May-06 10:00N 39°04' W 090°35'2 3.1
2018-May-06 09:30N 39°02' W 090°35'2 4.0
2018-May-06 09:00N 39°00' W 090°34'2 4.2
2018-May-06 08:30N 38°58' W 090°33'2 3.9
2018-May-06 08:00N 38°57' W 090°31'2 4.8
2018-May-06 07:30N 38°58' W 090°28'2 4.3
2018-May-06 07:00N 38°58' W 090°25'1 1.4
2018-May-06 06:28N 38°58' W 090°24'0 0.5
2018-May-06 06:00N 38°58' W 090°24'2 3.8
2018-May-06 05:30N 38°57' W 090°22'2 4.2
2018-May-06 05:00N 38°56' W 090°19'2 4.0
2018-May-06 04:30N 38°55' W 090°17'2 4.0
2018-May-06 04:00N 38°55' W 090°14'2 3.9
2018-May-06 03:30N 38°54' W 090°12'2 3.9
2018-May-06 03:00N 38°53' W 090°10'1 2.6
2018-May-06 02:30N 38°52' W 090°09'1 1.1
2018-May-06 02:00N 38°52' W 090°08'2 4.2
2018-May-06 01:30N 38°50' W 090°06'2 4.5
2018-May-06 01:00N 38°48' W 090°07'2 3.4
2018-May-06 00:29N 38°46' W 090°08'0 0.1
2018-May-05 23:53N 38°46' W 090°08'2 4.1
2018-May-05 23:30N 38°45' W 090°09'3 4.0
2018-May-05 22:47N 38°42' W 090°11'0 1.7
2018-May-05 22:30N 38°42' W 090°11'0 0.4
2018-May-05 21:58N 38°42' W 090°11'1 2.1
2018-May-05 21:30N 38°41' W 090°11'2 4.1
2018-May-05 21:00N 38°39' W 090°11'2 4.8
2018-May-05 20:30N 38°37' W 090°11'5 4.4
2018-May-05 19:27N 38°33' W 090°15'0 0.5
2018-May-05 19:00N 38°33' W 090°15'0 0.0
2018-May-05 18:30N 38°33' W 090°15'0 0.7
2018-May-05 17:58N 38°32' W 090°15'0 0.1
2018-May-05 14:02N 38°32' W 090°15'0 4.5
2018-May-05 13:59N 38°32' W 090°15'1 0.0
2018-May-04 12:15N 38°31' W 090°16'0 0.9
2018-May-04 12:00N 38°31' W 090°16'0 0.0
2018-May-04 11:06N 38°31' W 090°16'0 0.3
2018-May-04 11:00N 38°31' W 090°16'1 2.3
2018-May-04 10:26N 38°32' W 090°15'0 0.1
2018-May-04 10:00N 38°32' W 090°15'1 1.8
2018-May-04 09:30N 38°32' W 090°16'5 2.9
2018-May-04 07:39N 38°36' W 090°12'110.0
2018-May-04 07:30N 38°37' W 090°11'4 7.9
2018-May-04 07:00N 38°41' W 090°11'1 2.0
2018-May-04 06:26N 38°42' W 090°11'1 2.4
2018-May-04 05:53N 38°43' W 090°10'1 1.5
2018-May-04 05:30N 38°44' W 090°10'0 0.1
2018-May-04 05:00N 38°44' W 090°10'1 2.8
2018-May-04 04:30N 38°45' W 090°09'2 4.3
2018-May-04 04:00N 38°47' W 090°08'3 6.2
2018-May-04 03:30N 38°50' W 090°06'3 5.1
2018-May-04 03:00N 38°52' W 090°09'0 0.8
2018-May-04 02:30N 38°52' W 090°09'0 0.4
2018-May-04 02:00N 38°52' W 090°09'2 4.4
2018-May-04 01:30N 38°53' W 090°12'2 3.7
2018-May-04 01:00N 38°55' W 090°13'0 0.0
2018-May-04 00:30N 38°55' W 090°13'0 0.0
2018-May-04 00:00N 38°55' W 090°13'2 3.3
2018-May-03 23:30N 38°55' W 090°15'3 6.4
2018-May-03 23:00N 38°56' W 090°19'3 6.6
2018-May-03 22:30N 38°57' W 090°23'3 6.7
2018-May-03 22:00N 38°58' W 090°27'2 5.0
2018-May-03 21:30N 38°58' W 090°30'2 4.1
2018-May-03 21:00N 38°58' W 090°33'2 4.9
2018-May-03 20:30N 39°00' W 090°35'2 4.6
2018-May-03 20:00N 39°03' W 090°35'2 3.8
2018-May-03 19:30N 39°04' W 090°35'2 5.0
2018-May-03 19:00N 39°07' W 090°36'2 4.7
2018-May-03 18:30N 39°09' W 090°37'2 4.6
2018-May-03 17:59N 39°11' W 090°36'  

Dump ship's entire track history